createdAt,value
2022-12-25T00:04:57.048Z,144
2022-12-25T00:06:57.035Z,112
2022-12-25T00:08:57.043Z,119
2022-12-25T00:11:03.574Z,159
2022-12-25T00:13:57.005Z,149
2022-12-25T00:15:57.033Z,164
2022-12-25T00:18:57.003Z,168
2022-12-25T00:21:57.030Z,119
2022-12-25T00:25:57.011Z,153
2022-12-25T00:27:56.988Z,128
2022-12-25T00:30:57.001Z,164
2022-12-25T00:32:56.976Z,144
2022-12-25T00:35:56.986Z,112
2022-12-25T00:38:57.030Z,138
2022-12-25T00:41:57.003Z,163
2022-12-25T00:43:57.039Z,150
2022-12-25T00:46:57.013Z,138
2022-12-25T00:49:57.039Z,121
2022-12-25T00:52:57.032Z,140
2022-12-25T00:54:57.009Z,136
2022-12-25T00:56:57.018Z,176
2022-12-25T00:58:57.012Z,141
2022-12-25T01:00:57.109Z,185
2022-12-25T01:02:57.107Z,139
2022-12-25T01:05:56.994Z,176
2022-12-25T01:07:56.979Z,97
2022-12-25T01:09:57.001Z,130
2022-12-25T01:12:56.994Z,134
2022-12-25T01:15:00.113Z,133
2022-12-25T01:17:56.984Z,96
2022-12-25T01:19:57.023Z,142
2022-12-25T01:22:56.978Z,125
2022-12-25T01:24:56.989Z,126
2022-12-25T01:26:56.995Z,138
2022-12-25T01:29:56.987Z,126
2022-12-25T01:32:57.000Z,106
2022-12-25T01:35:56.998Z,127
2022-12-25T01:37:57.012Z,185
2022-12-25T01:40:57.023Z,160
2022-12-25T01:43:57.013Z,165
2022-12-25T01:45:57.184Z,163
2022-12-25T01:48:56.977Z,190
2022-12-25T01:50:56.984Z,165
2022-12-25T01:52:56.987Z,165
2022-12-25T01:55:57.006Z,206
2022-12-25T01:58:56.972Z,178
2022-12-25T02:00:56.999Z,145
2022-12-25T02:02:57.115Z,179
2022-12-25T02:05:56.985Z,145
2022-12-25T02:08:56.989Z,163
2022-12-25T02:11:56.995Z,157
2022-12-25T02:13:56.966Z,116
2022-12-25T02:16:58.766Z,148
2022-12-25T02:19:57.154Z,160
2022-12-25T02:22:57.027Z,120
2022-12-25T02:24:56.977Z,211
2022-12-25T02:27:57.002Z,140
2022-12-25T02:29:56.958Z,133
2022-12-25T02:31:57.140Z,131
2022-12-25T02:34:57.008Z,173
2022-12-25T02:36:56.995Z,116
2022-12-25T02:38:57.048Z,103
2022-12-25T02:41:56.980Z,99
2022-12-25T02:43:57.006Z,141
2022-12-25T02:46:56.996Z,114
2022-12-25T02:48:57.050Z,127
2022-12-25T02:51:56.983Z,108
2022-12-25T02:53:56.981Z,121
2022-12-25T02:55:56.989Z,158
2022-12-25T02:58:57.142Z,161
2022-12-25T03:01:57.146Z,154
2022-12-25T03:04:57.027Z,116
2022-12-25T03:06:57.013Z,113
2022-12-25T03:09:57.058Z,86
2022-12-25T03:12:56.991Z,124
2022-12-25T03:14:57.047Z,184
2022-12-25T03:17:57.256Z,154
2022-12-25T03:20:57.050Z,144
2022-12-25T03:23:57.001Z,138
2022-12-25T03:25:57.000Z,113
2022-12-25T03:27:57.027Z,155
2022-12-25T03:30:03.604Z,136
2022-12-25T03:32:56.998Z,136
2022-12-25T03:35:57.075Z,155
2022-12-25T03:38:57.026Z,140
2022-12-25T03:41:56.991Z,160
2022-12-25T03:44:57.012Z,128
2022-12-25T03:46:57.013Z,125
2022-12-25T03:48:57.020Z,143
2022-12-25T03:51:57.028Z,118
2022-12-25T03:54:56.982Z,147
2022-12-25T03:56:57.043Z,102
2022-12-25T03:59:57.008Z,109
2022-12-25T04:01:57.081Z,125
2022-12-25T04:04:57.033Z,140
2022-12-25T04:06:57.094Z,140
2022-12-25T04:09:57.013Z,93
2022-12-25T04:12:02.118Z,125
2022-12-25T04:14:57.031Z,88
2022-12-25T04:17:56.997Z,88
2022-12-25T04:19:57.031Z,68
2022-12-25T04:22:57.001Z,102
2022-12-25T04:24:57.006Z,96
2022-12-25T04:27:57.085Z,53
2022-12-25T04:30:57.036Z,74
2022-12-25T04:32:57.024Z,90
2022-12-25T04:35:57.003Z,64
2022-12-25T04:38:57.009Z,66
2022-12-25T04:40:57.022Z,82
2022-12-25T04:43:57.008Z,55
2022-12-25T04:46:57.184Z,74
2022-12-25T04:49:57.028Z,70
2022-12-25T04:51:57.019Z,68
2022-12-25T04:54:57.055Z,74
2022-12-25T04:57:57.037Z,69
2022-12-25T05:03:57.340Z,95
2022-12-25T05:06:57.053Z,75
2022-12-25T05:08:57.124Z,41
2022-12-25T05:11:57.035Z,104
2022-12-25T05:14:57.039Z,54
2022-12-25T05:17:57.012Z,57
2022-12-25T05:20:57.040Z,86
2022-12-25T05:23:57.075Z,83
2022-12-25T05:26:57.044Z,70
2022-12-25T05:28:57.053Z,55
2022-12-25T05:31:57.017Z,41
2022-12-25T05:33:57.028Z,89
2022-12-25T05:36:57.014Z,64
2022-12-25T05:39:57.196Z,62
2022-12-25T05:43:57.007Z,56
2022-12-25T05:45:57.089Z,104
2022-12-25T05:48:57.017Z,81
2022-12-25T05:51:57.025Z,88
2022-12-25T05:53:57.066Z,67
2022-12-25T05:56:57.026Z,54
2022-12-25T05:58:57.054Z,91
2022-12-25T06:00:57.039Z,86
2022-12-25T06:03:57.047Z,85
2022-12-25T06:05:57.020Z,70
2022-12-25T06:07:56.990Z,83
2022-12-25T06:09:57.020Z,61
2022-12-25T06:11:57.012Z,67
2022-12-25T06:13:57.099Z,77
2022-12-25T06:16:57.086Z,68
2022-12-25T06:19:57.007Z,74
2022-12-25T06:21:57.005Z,92
2022-12-25T06:23:57.068Z,75
2022-12-25T06:25:57.006Z,80
2022-12-25T06:27:57.013Z,64
2022-12-25T06:30:57.016Z,102
2022-12-25T06:32:56.991Z,60
2022-12-25T06:34:57.095Z,81
2022-12-25T06:37:57.029Z,115
2022-12-25T06:39:57.009Z,63
2022-12-25T06:42:57.058Z,56
2022-12-25T06:44:57.100Z,85
2022-12-25T06:47:56.992Z,94
2022-12-25T06:50:57.012Z,63
2022-12-25T06:53:56.997Z,85
2022-12-25T06:55:57.029Z,62
2022-12-25T06:58:57.007Z,76
2022-12-25T07:01:57.131Z,108
2022-12-25T07:03:57.082Z,53
2022-12-25T07:06:57.016Z,83
2022-12-25T07:09:57.021Z,84
2022-12-25T07:12:57.003Z,55
2022-12-25T07:14:57.031Z,46
2022-12-25T07:17:56.984Z,65
2022-12-25T07:19:57.012Z,70
2022-12-25T07:22:57.027Z,68
2022-12-25T07:24:57.031Z,62
2022-12-25T07:27:57.020Z,114
2022-12-25T07:29:57.053Z,64
2022-12-25T07:32:57.013Z,77
2022-12-25T07:35:03.585Z,58
2022-12-25T07:37:57.188Z,88
2022-12-25T07:40:57.028Z,118
2022-12-25T07:43:57.049Z,89
2022-12-25T07:46:57.029Z,85
2022-12-25T07:48:57.037Z,85
2022-12-25T07:50:57.034Z,98
2022-12-25T07:53:57.018Z,79
2022-12-25T07:55:57.049Z,77
2022-12-25T07:58:57.022Z,108
2022-12-25T08:02:57.204Z,155
2022-12-25T08:04:57.122Z,99
2022-12-25T08:07:57.511Z,102
2022-12-25T08:09:57.010Z,111
2022-12-25T08:11:57.019Z,104
2022-12-25T08:14:58.028Z,85
2022-12-25T08:16:57.064Z,86
2022-12-25T08:19:57.014Z,105
2022-12-25T08:22:57.038Z,105
2022-12-25T08:26:02.306Z,117
2022-12-25T08:28:57.105Z,72
2022-12-25T08:31:57.066Z,95
2022-12-25T08:34:57.022Z,94
2022-12-25T08:37:57.019Z,101
2022-12-25T08:40:57.022Z,124
2022-12-25T08:43:57.042Z,90
2022-12-25T08:46:57.034Z,105
2022-12-25T08:48:57.123Z,114
2022-12-25T08:51:57.031Z,100
2022-12-25T08:53:57.053Z,103
2022-12-25T08:55:57.090Z,131
2022-12-25T08:58:57.142Z,112
2022-12-25T09:02:03.743Z,95
2022-12-25T09:04:57.086Z,123
2022-12-25T09:07:56.985Z,81
2022-12-25T09:09:57.054Z,61
2022-12-25T09:12:57.021Z,84
2022-12-25T09:14:57.145Z,104
2022-12-25T09:17:57.017Z,62
2022-12-25T09:20:57.023Z,62
2022-12-25T09:22:56.994Z,68
2022-12-25T09:25:57.122Z,87
2022-12-25T09:28:57.026Z,58
2022-12-25T09:30:57.126Z,66
2022-12-25T09:33:57.036Z,90
2022-12-25T09:35:57.038Z,67
2022-12-25T09:38:58.118Z,53
2022-12-25T09:42:03.614Z,62
2022-12-25T09:44:57.021Z,35
2022-12-25T09:47:56.999Z,37
2022-12-25T09:49:57.036Z,58
2022-12-25T09:51:57.066Z,61
2022-12-25T09:54:57.030Z,62
2022-12-25T09:57:57.026Z,85
2022-12-25T10:00:57.062Z,82
2022-12-25T10:03:57.021Z,42
2022-12-25T10:05:57.137Z,24
2022-12-25T10:08:57.105Z,45
2022-12-25T10:11:57.038Z,72
2022-12-25T10:13:57.055Z,46
2022-12-25T10:16:57.048Z,69
2022-12-25T10:18:57.090Z,39
2022-12-25T10:21:57.025Z,53
2022-12-25T10:23:57.038Z,55
2022-12-25T10:26:57.015Z,110
2022-12-25T10:29:57.039Z,49
2022-12-25T10:33:57.070Z,70
2022-12-25T10:36:57.093Z,77
2022-12-25T10:39:57.055Z,129
2022-12-25T10:42:57.038Z,31
2022-12-25T10:44:57.065Z,71
2022-12-25T10:48:02.049Z,42
2022-12-25T10:50:57.049Z,76
2022-12-25T10:52:57.044Z,99
2022-12-25T10:55:57.014Z,47
2022-12-25T10:58:57.031Z,44
2022-12-25T11:01:57.166Z,37
2022-12-25T11:04:57.018Z,51
2022-12-25T11:06:57.048Z,98
2022-12-25T11:10:01.050Z,55
2022-12-25T11:12:57.017Z,67
2022-12-25T11:14:57.030Z,63
2022-12-25T11:16:57.074Z,48
2022-12-25T11:18:57.087Z,26
2022-12-25T11:21:57.069Z,47
2022-12-25T11:23:58.120Z,60
2022-12-25T11:25:57.102Z,52
2022-12-25T11:27:57.105Z,40
2022-12-25T11:30:57.172Z,39
2022-12-25T11:33:57.076Z,50
2022-12-25T11:35:57.073Z,55
2022-12-25T11:37:57.118Z,58
2022-12-25T11:39:58.747Z,73
2022-12-25T11:42:57.596Z,58
2022-12-25T11:45:57.101Z,47
2022-12-25T11:48:57.140Z,67
2022-12-25T11:51:07.341Z,63
2022-12-25T11:54:57.178Z,65
2022-12-25T11:58:57.086Z,53
2022-12-25T12:00:57.085Z,64
2022-12-25T12:02:57.193Z,51
2022-12-25T12:06:57.079Z,49
2022-12-25T12:10:57.079Z,46
2022-12-25T12:15:57.119Z,63
2022-12-25T12:17:57.091Z,69
2022-12-25T12:20:57.061Z,57
2022-12-25T12:22:57.086Z,63
2022-12-25T12:26:57.132Z,67
2022-12-25T12:29:57.089Z,86
2022-12-25T12:32:57.091Z,29
2022-12-25T12:34:58.797Z,37
2022-12-25T12:37:57.107Z,70
2022-12-25T12:40:57.124Z,56
2022-12-25T12:43:57.080Z,57
2022-12-25T12:46:07.441Z,36
2022-12-25T12:48:57.125Z,44
2022-12-25T12:51:57.072Z,51
2022-12-25T12:53:57.206Z,61
2022-12-25T12:56:58.181Z,52
2022-12-25T12:59:57.084Z,53
2022-12-25T13:01:57.164Z,55
2022-12-25T13:03:57.125Z,33
2022-12-25T13:06:57.097Z,72
2022-12-25T13:09:57.046Z,51
2022-12-25T13:12:57.189Z,48
2022-12-25T13:15:57.153Z,48
2022-12-25T13:18:57.083Z,56
2022-12-25T13:21:57.074Z,48
2022-12-25T13:23:57.097Z,44
2022-12-25T13:26:57.072Z,41
2022-12-25T13:28:57.077Z,46
2022-12-25T13:31:57.150Z,49
2022-12-25T13:34:57.082Z,58
2022-12-25T13:38:57.078Z,50
2022-12-25T13:42:57.100Z,26
2022-12-25T13:46:57.088Z,39
2022-12-25T13:51:04.484Z,52
2022-12-25T13:52:57.162Z,25
2022-12-25T13:55:57.178Z,58
2022-12-25T13:58:57.159Z,56
2022-12-25T14:01:11.293Z,33
2022-12-25T14:03:41.581Z,46
2022-12-25T14:06:09.729Z,36
2022-12-25T14:09:14.968Z,58
2022-12-25T14:12:20.234Z,49
2022-12-25T14:14:29.904Z,35
2022-12-25T14:17:39.265Z,62
2022-12-25T14:19:59.869Z,50
2022-12-25T14:23:15.699Z,34
2022-12-25T14:25:43.975Z,43
2022-12-25T14:27:53.608Z,60
2022-12-25T14:30:05.319Z,38
2022-12-25T14:32:57.190Z,54
2022-12-25T14:34:57.192Z,51
2022-12-25T14:37:57.139Z,53
2022-12-25T14:39:57.193Z,47
2022-12-25T14:42:57.173Z,50
2022-12-25T14:44:57.170Z,39
2022-12-25T14:46:57.209Z,61
2022-12-25T14:49:25.428Z,49
2022-12-25T14:51:53.595Z,68
2022-12-25T14:54:05.329Z,59
2022-12-25T14:57:57.244Z,46
2022-12-25T15:01:05.685Z,44
2022-12-25T15:03:57.240Z,43
2022-12-25T15:05:57.180Z,30
2022-12-25T15:08:57.171Z,47
2022-12-25T15:12:57.183Z,42
2022-12-25T15:14:57.166Z,34
2022-12-25T15:17:11.258Z,33
2022-12-25T15:19:39.482Z,46
2022-12-25T15:21:49.275Z,71
2022-12-25T15:23:57.202Z,65
2022-12-25T15:25:57.176Z,55
2022-12-25T15:27:57.291Z,62
2022-12-25T15:30:57.261Z,78
2022-12-25T15:33:57.200Z,69
2022-12-25T15:35:57.162Z,77
2022-12-25T15:37:57.199Z,100
2022-12-25T15:41:57.182Z,79
2022-12-25T15:44:25.399Z,65
2022-12-25T15:46:53.655Z,89
2022-12-25T15:49:05.350Z,73
2022-12-25T15:51:57.195Z,105
2022-12-25T15:54:57.240Z,62
2022-12-25T15:57:11.260Z,82
2022-12-25T15:59:39.480Z,74
2022-12-25T16:02:07.785Z,108
2022-12-25T16:04:57.187Z,73
2022-12-25T16:06:57.180Z,64
2022-12-25T16:08:57.183Z,79
2022-12-25T16:11:57.228Z,88
2022-12-25T16:14:11.282Z,73
2022-12-25T16:16:39.517Z,78
2022-12-25T16:18:49.198Z,76
2022-12-25T16:20:57.152Z,35
2022-12-25T16:22:57.162Z,84
2022-12-25T16:25:04.024Z,71
2022-12-25T16:27:57.212Z,83
2022-12-25T16:30:08.976Z,85
2022-12-25T16:32:37.089Z,84
2022-12-25T16:35:05.339Z,91
2022-12-25T16:37:17.029Z,94
2022-12-25T16:39:57.203Z,75
2022-12-25T16:42:11.248Z,82
2022-12-25T16:44:39.471Z,91
2022-12-25T16:46:49.227Z,106
2022-12-25T16:48:57.227Z,73
2022-12-25T16:51:57.278Z,65
2022-12-25T16:54:57.204Z,83
2022-12-25T16:57:57.187Z,83
2022-12-25T17:00:57.180Z,83
2022-12-25T17:02:57.455Z,97
2022-12-25T17:05:57.208Z,86
2022-12-25T17:07:57.211Z,77
2022-12-25T17:10:57.209Z,60
2022-12-25T17:12:57.222Z,72
2022-12-25T17:15:57.370Z,59
2022-12-25T17:18:57.161Z,74
2022-12-25T17:20:57.203Z,84
2022-12-25T17:24:02.201Z,51
2022-12-25T17:25:57.251Z,56
2022-12-25T17:28:25.713Z,99
2022-12-25T17:34:01.229Z,75
2022-12-25T17:36:12.961Z,90
2022-12-25T17:38:57.204Z,133
2022-12-25T17:40:57.363Z,99
2022-12-25T17:43:57.206Z,162
2022-12-25T17:45:57.244Z,143
2022-12-25T17:48:57.171Z,80
2022-12-25T17:50:57.299Z,117
2022-12-25T17:54:11.255Z,66
2022-12-25T17:56:39.486Z,76
2022-12-25T17:59:09.757Z,54
2022-12-25T18:02:57.447Z,32
2022-12-25T18:06:58.185Z,47
2022-12-25T18:09:11.383Z,24
2022-12-25T18:11:41.569Z,31
2022-12-25T18:14:11.784Z,30
2022-12-25T18:17:35.603Z,19
2022-12-25T18:19:47.328Z,21
2022-12-25T18:22:57.199Z,34
2022-12-25T18:24:57.180Z,21
2022-12-25T18:26:57.163Z,37
2022-12-25T18:29:57.201Z,33
2022-12-25T18:33:57.215Z,26
2022-12-25T18:36:07.180Z,28
2022-12-25T18:38:57.201Z,35
2022-12-25T18:41:25.414Z,43
2022-12-25T18:43:55.769Z,23
2022-12-25T18:46:05.459Z,22
2022-12-25T18:48:57.397Z,25
2022-12-25T18:52:47.102Z,33
2022-12-25T18:53:57.200Z,31
2022-12-25T18:56:58.954Z,24
2022-12-25T18:59:57.231Z,28
2022-12-25T19:02:57.303Z,33
2022-12-25T19:04:57.219Z,32
2022-12-25T19:07:57.209Z,51
2022-12-25T19:09:57.202Z,30
2022-12-25T19:11:57.211Z,25
2022-12-25T19:13:57.271Z,26
2022-12-25T19:16:57.304Z,39
2022-12-25T19:19:57.174Z,56
2022-12-25T19:21:57.185Z,24
2022-12-25T19:24:57.282Z,25
2022-12-25T19:27:57.184Z,34
2022-12-25T19:29:57.224Z,37
2022-12-25T19:32:57.195Z,34
2022-12-25T19:36:13.533Z,51
2022-12-25T19:38:25.293Z,33
2022-12-25T19:40:53.467Z,62
2022-12-25T19:43:03.170Z,33
2022-12-25T19:45:57.278Z,26
2022-12-25T19:48:57.178Z,39
2022-12-25T19:51:57.213Z,31
2022-12-25T19:53:57.219Z,24
2022-12-25T19:56:57.198Z,43
2022-12-25T19:58:57.207Z,26
2022-12-25T20:01:57.332Z,21
2022-12-25T20:03:57.221Z,46
2022-12-25T20:05:57.200Z,30
2022-12-25T20:08:57.180Z,25
2022-12-25T20:11:57.249Z,23
2022-12-25T20:14:57.208Z,44
2022-12-25T20:16:57.334Z,34
2022-12-25T20:18:57.227Z,32
2022-12-25T20:22:29.404Z,37
2022-12-25T20:23:57.257Z,27
2022-12-25T20:26:59.330Z,42
2022-12-25T20:28:57.213Z,23
2022-12-25T20:30:57.209Z,22
2022-12-25T20:34:57.189Z,48
2022-12-25T20:37:00.728Z,39
2022-12-25T20:39:57.201Z,42
2022-12-25T20:42:57.202Z,45
2022-12-25T20:44:57.252Z,62
2022-12-25T20:47:57.232Z,24
2022-12-25T20:49:57.299Z,19
2022-12-25T20:52:57.189Z,43
2022-12-25T20:54:57.219Z,30
2022-12-25T20:57:57.288Z,33
2022-12-25T21:00:57.216Z,30
2022-12-25T21:03:57.291Z,28
2022-12-25T21:07:57.215Z,42
2022-12-25T21:10:25.436Z,43
2022-12-25T21:12:53.644Z,40
2022-12-25T21:15:11.752Z,40
2022-12-25T21:18:57.225Z,31
2022-12-25T21:20:57.256Z,54
2022-12-25T21:23:57.200Z,29
2022-12-25T21:26:57.222Z,30
2022-12-25T21:30:58.178Z,32
2022-12-25T21:33:07.726Z,35
2022-12-25T21:36:12.972Z,45
2022-12-25T21:38:22.682Z,26
2022-12-25T21:41:32.044Z,25
2022-12-25T21:43:57.215Z,26
2022-12-25T21:46:57.222Z,26
2022-12-25T21:50:57.210Z,36
2022-12-25T21:54:57.240Z,19
2022-12-25T21:57:41.927Z,32
2022-12-25T21:59:51.624Z,54
2022-12-25T22:02:23.975Z,44
2022-12-25T22:04:54.246Z,30
2022-12-25T22:08:22.038Z,39
2022-12-25T22:11:10.751Z,22
2022-12-25T22:14:01.604Z,23
2022-12-25T22:16:31.832Z,36
2022-12-25T22:19:57.174Z,30
2022-12-25T22:22:13.367Z,29
2022-12-25T22:24:43.642Z,29
2022-12-25T22:26:53.252Z,44
2022-12-25T22:29:02.939Z,39
2022-12-25T22:31:57.234Z,34
2022-12-25T22:34:57.204Z,24
2022-12-25T22:37:15.771Z,69
2022-12-25T22:39:57.257Z,34
2022-12-25T22:43:11.341Z,33
2022-12-25T22:45:39.537Z,21
2022-12-25T22:47:52.362Z,28
2022-12-25T22:49:57.212Z,30
2022-12-25T22:51:57.217Z,27
2022-12-25T22:54:57.252Z,26
2022-12-25T22:58:00.353Z,30
2022-12-25T22:59:57.219Z,30
2022-12-25T23:02:15.882Z,24
2022-12-25T23:04:46.035Z,28
2022-12-25T23:07:53.299Z,43
2022-12-25T23:10:21.493Z,20
2022-12-25T23:12:33.249Z,20
2022-12-25T23:14:57.248Z,38
2022-12-25T23:17:07.241Z,46
2022-12-25T23:19:57.216Z,46
2022-12-25T23:21:57.201Z,50
2022-12-25T23:23:57.244Z,34
2022-12-25T23:25:57.226Z,29
2022-12-25T23:29:57.236Z,18
2022-12-25T23:33:57.228Z,55
2022-12-25T23:36:25.445Z,37
2022-12-25T23:39:34.800Z,47
2022-12-25T23:42:03.005Z,27
2022-12-25T23:45:08.253Z,44
2022-12-25T23:47:19.961Z,44
2022-12-25T23:49:57.260Z,32
2022-12-25T23:55:57.536Z,22
2022-12-25T23:58:57.295Z,31
